Time;durP1;ratioP1;P1;durP2;ratioP2;P2;SDS_P1;SDS_P2;PMS_P1;PMS_P2;Temp;Humidity;BMP_temperature;BMP_pressure;BME280_temperature;BME280_humidity;BME280_pressure;Samples;Min_cycle;Max_cycle;Signal;HPM_P1;HPM_P2
2021/03/18 00:01:13;;;;;;;5.53;1.38;;;21.40;48.90;;;;;;5189348;28;20495;-77
2021/03/18 00:03:44;;;;;;;9.18;1.58;;;21.30;49.40;;;;;;5187926;28;20040;-76
2021/03/18 00:06:15;;;;;;;13.45;1.60;;;21.20;50.10;;;;;;5193410;28;20094;-76
2021/03/18 00:08:46;;;;;;;5.47;1.38;;;21.10;50.20;;;;;;5191746;28;20025;-77
2021/03/18 00:11:18;;;;;;;10.07;1.83;;;21.10;50.20;;;;;;5189578;28;20431;-76
2021/03/18 00:13:49;;;;;;;9.88;1.75;;;21.10;50.10;;;;;;5206858;28;20013;-76
2021/03/18 00:16:19;;;;;;;7.97;1.48;;;21.00;50.40;;;;;;5190152;28;20565;-76
2021/03/18 00:18:52;;;;;;;9.82;1.70;;;21.00;51.50;;;;;;5177874;28;20488;-76
2021/03/18 00:21:23;;;;;;;9.45;1.65;;;21.00;51.30;;;;;;5200602;28;20025;-76
2021/03/18 00:23:53;;;;;;;8.85;1.95;;;21.00;51.50;;;;;;5207692;28;20078;-76
2021/03/18 00:26:25;;;;;;;4.28;1.52;;;21.00;51.70;;;;;;5196964;28;20049;-76
2021/03/18 00:28:56;;;;;;;10.07;1.58;;;21.00;51.90;;;;;;5202073;28;20501;-76
2021/03/18 00:31:31;;;;;;;3.05;1.50;;;21.00;52.00;;;;;;5192838;28;20039;-76
2021/03/18 00:34:02;;;;;;;8.60;1.55;;;21.00;52.20;;;;;;5194339;28;20411;-76
2021/03/18 00:36:33;;;;;;;7.18;1.65;;;21.00;52.00;;;;;;5177401;28;20033;-76
2021/03/18 00:39:06;;;;;;;5.32;1.60;;;20.90;52.00;;;;;;5197274;28;20040;-76
2021/03/18 00:41:37;;;;;;;6.93;1.50;;;20.90;52.10;;;;;;5183916;28;20116;-76
2021/03/18 00:44:08;;;;;;;8.13;1.58;;;20.90;51.90;;;;;;5177153;28;20120;-76
2021/03/18 00:46:38;;;;;;;19.55;2.00;;;20.90;52.50;;;;;;5192994;28;20095;-76
2021/03/18 00:49:09;;;;;;;6.63;1.58;;;21.00;52.90;;;;;;5204709;28;20028;-76
2021/03/18 00:51:39;;;;;;;6.00;1.80;;;20.90;52.80;;;;;;5190007;28;20037;-77
2021/03/18 00:54:10;;;;;;;7.40;1.60;;;21.00;52.90;;;;;;5198270;28;20025;-76
2021/03/18 00:56:41;;;;;;;9.77;1.83;;;20.90;53.10;;;;;;5196153;28;20376;-77
2021/03/18 00:59:11;;;;;;;7.85;1.30;;;20.90;53.00;;;;;;5195082;28;20027;-76
2021/03/18 01:01:42;;;;;;;10.25;1.92;;;20.90;52.90;;;;;;5192753;28;20039;-77
2021/03/18 01:04:12;;;;;;;5.90;1.40;;;20.90;52.90;;;;;;5186759;28;20515;-76
2021/03/18 01:06:43;;;;;;;4.22;1.40;;;20.90;53.20;;;;;;5204388;28;20103;-76
2021/03/18 01:09:13;;;;;;;7.22;1.73;;;20.90;53.00;;;;;;5194931;28;20028;-77
2021/03/18 01:11:44;;;;;;;5.53;1.80;;;20.80;52.90;;;;;;5195415;28;20048;-76
2021/03/18 01:14:14;;;;;;;6.78;1.73;;;20.90;53.60;;;;;;5194612;28;20482;-77
2021/03/18 01:16:50;;;;;;;3.30;1.40;;;20.90;53.30;;;;;;5181526;28;20071;-76
2021/03/18 01:19:21;;;;;;;2.55;1.65;;;20.90;53.60;;;;;;5196439;28;20032;-76
2021/03/18 01:21:56;;;;;;;2.25;1.35;;;20.90;53.90;;;;;;5179414;28;20442;-77
2021/03/18 01:24:27;;;;;;;3.47;1.50;;;20.90;53.90;;;;;;5206865;28;20024;-77
2021/03/18 01:26:57;;;;;;;1.60;1.20;;;20.90;54.20;;;;;;5191214;28;20495;-76
2021/03/18 01:29:28;;;;;;;6.90;1.50;;;20.90;54.20;;;;;;5191978;28;20566;-77
2021/03/18 01:31:58;;;;;;;5.15;1.52;;;20.90;54.20;;;;;;5196690;28;20433;-76
2021/03/18 01:34:29;;;;;;;9.65;1.75;;;20.80;53.90;;;;;;5206314;28;20067;-77
2021/03/18 01:37:00;;;;;;;6.55;1.50;;;20.80;54.00;;;;;;5189162;28;20025;-76
2021/03/18 01:39:30;;;;;;;4.32;1.42;;;20.90;54.30;;;;;;5193970;28;20032;-77
2021/03/18 01:42:01;;;;;;;6.70;1.60;;;20.90;54.90;;;;;;5193786;28;20043;-77
2021/03/18 01:44:31;;;;;;;5.53;1.50;;;20.90;54.70;;;;;;5190422;28;20028;-77
2021/03/18 01:47:02;;;;;;;4.28;1.23;;;20.90;54.70;;;;;;5181036;28;20578;-77
2021/03/18 01:49:33;;;;;;;11.60;1.70;;;21.00;54.60;;;;;;5193741;28;20048;-76
2021/03/18 01:52:03;;;;;;;6.80;1.30;;;20.90;54.50;;;;;;5182564;28;20432;-76
2021/03/18 01:54:34;;;;;;;20.45;1.70;;;20.90;54.40;;;;;;5240921;23;20154;-72
2021/03/18 01:57:05;;;;;;;9.35;1.50;;;20.90;54.80;;;;;;5253285;28;20043;-71
2021/03/18 01:59:35;;;;;;;2.97;1.35;;;21.00;55.00;;;;;;5269896;28;20034;-70
2021/03/18 02:02:06;;;;;;;6.28;1.45;;;20.90;54.90;;;;;;5252135;28;20088;-70
2021/03/18 02:04:37;;;;;;;7.90;1.30;;;21.00;54.80;;;;;;5255998;28;20016;-71
2021/03/18 02:07:07;;;;;;;2.97;1.25;;;21.00;54.70;;;;;;5248482;28;20086;-70
2021/03/18 02:09:38;;;;;;;5.55;1.48;;;21.00;54.60;;;;;;5260803;28;20070;-70
2021/03/18 02:12:08;;;;;;;4.07;1.50;;;20.90;54.60;;;;;;5266511;28;20649;-70
2021/03/18 02:14:39;;;;;;;4.63;1.20;;;20.90;54.80;;;;;;5262921;28;20024;-70
2021/03/18 02:17:10;;;;;;;4.15;1.50;;;20.90;54.70;;;;;;5243950;28;20025;-72
2021/03/18 02:19:55;;;;;;;11.82;1.58;;;21.00;54.70;;;;;;5248547;28;20032;-70
2021/03/18 02:22:25;;;;;;;8.27;1.47;;;21.00;54.90;;;;;;5250180;28;20624;-69
2021/03/18 02:25:21;;;;;;;5.63;1.30;;;20.90;54.90;;;;;;5265437;28;20024;-70
2021/03/18 02:28:13;;;;;;;11.23;1.42;;;20.90;54.70;;;;;;5247684;28;20063;-70
2021/03/18 02:31:03;;;;;;;7.15;1.33;;;20.90;54.70;;;;;;5265182;28;20493;-70
2021/03/18 02:33:58;;;;;;;3.85;1.50;;;20.90;54.30;;;;;;5231795;28;20032;-71
2021/03/18 02:36:36;;;;;;;1.77;1.20;;;20.80;54.50;;;;;;5266772;28;20024;-71
2021/03/18 02:39:12;;;;;;;5.40;1.30;;;20.90;54.70;;;;;;5213658;28;20103;-72
2021/03/18 02:41:45;;;;;;;3.22;1.15;;;20.80;55.00;;;;;;5248530;28;20044;-72
2021/03/18 02:44:18;;;;;;;6.65;1.20;;;20.90;55.10;;;;;;5229289;28;20404;-70
2021/03/18 02:46:52;;;;;;;4.45;1.38;;;20.80;54.80;;;;;;5233173;28;20119;-70
2021/03/18 02:49:23;;;;;;;7.78;1.27;;;20.90;55.00;;;;;;5230552;28;20698;-69
2021/03/18 02:51:53;;;;;;;3.75;1.50;;;20.90;55.50;;;;;;5229138;28;20032;-72
2021/03/18 02:54:24;;;;;;;7.35;1.30;;;20.90;55.50;;;;;;5230515;28;20024;-71
2021/03/18 02:56:56;;;;;;;4.88;1.20;;;20.90;55.40;;;;;;5237059;28;20511;-70
2021/03/18 02:59:29;;;;;;;5.97;1.42;;;20.90;55.50;;;;;;5251403;28;20023;-70
2021/03/18 03:02:01;;;;;;;4.38;1.10;;;20.90;55.70;;;;;;5228991;28;20442;-73
2021/03/18 03:04:35;;;;;;;3.58;1.10;;;20.90;55.70;;;;;;5204888;28;20040;-73
2021/03/18 03:07:07;;;;;;;5.57;1.30;;;20.90;55.60;;;;;;5246810;28;20032;-70
2021/03/18 03:09:40;;;;;;;6.18;1.20;;;20.90;55.70;;;;;;5247560;28;20048;-70
2021/03/18 03:12:14;;;;;;;5.72;1.30;;;20.90;55.50;;;;;;5243854;28;20508;-70
2021/03/18 03:14:45;;;;;;;3.85;1.00;;;20.90;55.60;;;;;;5206691;28;20032;-69
2021/03/18 03:17:17;;;;;;;2.75;1.05;;;20.90;55.60;;;;;;5227458;28;20114;-71
2021/03/18 03:19:48;;;;;;;4.93;1.45;;;20.90;55.60;;;;;;5265416;28;20106;-70
2021/03/18 03:22:18;;;;;;;5.05;1.10;;;20.90;55.60;;;;;;5265102;28;20774;-70
2021/03/18 03:24:49;;;;;;;6.00;1.10;;;20.90;55.70;;;;;;5246913;28;20039;-70
2021/03/18 03:27:20;;;;;;;4.15;1.20;;;20.90;55.80;;;;;;5207386;28;20024;-72
2021/03/18 03:29:50;;;;;;;3.67;1.23;;;20.90;55.70;;;;;;5230649;28;20111;-71
2021/03/18 03:32:21;;;;;;;2.22;1.20;;;20.90;55.60;;;;;;5246951;28;20025;-70
2021/03/18 03:34:51;;;;;;;3.72;1.30;;;20.90;55.80;;;;;;5247270;28;20036;-70
2021/03/18 03:37:22;;;;;;;3.47;0.90;;;20.90;56.00;;;;;;5225992;28;20485;-70
2021/03/18 03:39:52;;;;;;;5.57;1.20;;;20.90;56.00;;;;;;5230825;28;20036;-72
2021/03/18 03:42:23;;;;;;;4.78;1.20;;;20.90;55.90;;;;;;5236334;28;20047;-70
2021/03/18 03:44:53;;;;;;;2.95;1.02;;;20.90;56.20;;;;;;5253729;28;20028;-70
2021/03/18 03:47:24;;;;;;;3.00;1.00;;;20.90;56.10;;;;;;5232119;28;20059;-70
2021/03/18 03:49:54;;;;;;;4.47;1.00;;;20.90;56.10;;;;;;5265581;28;20555;-70
2021/03/18 03:52:34;;;;;;;11.82;1.50;;;20.90;56.40;;;;;;5237033;28;20070;-73
2021/03/18 03:55:14;;;;;;;4.97;1.20;;;20.90;56.20;;;;;;5236840;28;20700;-70
2021/03/18 03:57:57;;;;;;;3.53;1.00;;;20.90;56.20;;;;;;5252836;28;20036;-72
2021/03/18 04:00:28;;;;;;;5.90;1.10;;;20.90;56.10;;;;;;5234685;28;20035;-70
2021/03/18 04:02:59;;;;;;;10.68;1.52;;;20.90;56.10;;;;;;5236685;28;20036;-70
2021/03/18 04:05:30;;;;;;;2.50;1.20;;;20.90;56.00;;;;;;5252260;28;20080;-71
2021/03/18 04:08:01;;;;;;;2.80;0.93;;;20.90;56.10;;;;;;5269827;28;20035;-70
2021/03/18 04:10:32;;;;;;;2.47;1.02;;;20.90;56.10;;;;;;5252776;28;20040;-72
2021/03/18 04:13:02;;;;;;;2.13;1.00;;;20.90;56.10;;;;;;5241960;28;20020;-70
2021/03/18 04:15:33;;;;;;;2.28;1.00;;;20.90;55.70;;;;;;5235227;28;20028;-71
2021/03/18 04:18:04;;;;;;;2.60;0.95;;;20.80;55.90;;;;;;5219990;28;20024;-70
2021/03/18 04:20:36;;;;;;;2.13;0.90;;;20.90;55.70;;;;;;5253547;28;20111;-73
2021/03/18 04:23:08;;;;;;;4.15;1.10;;;20.90;55.70;;;;;;5252034;28;20032;-71
2021/03/18 04:25:39;;;;;;;1.25;0.77;;;20.80;55.50;;;;;;5251939;28;20024;-71
2021/03/18 04:28:09;;;;;;;2.47;0.90;;;20.80;55.70;;;;;;5236267;28;20039;-71
2021/03/18 04:30:40;;;;;;;1.00;0.90;;;20.90;56.00;;;;;;5235176;28;20389;-70
2021/03/18 04:33:11;;;;;;;9.50;1.30;;;20.80;56.10;;;;;;5272707;28;20031;-72
2021/03/18 04:35:41;;;;;;;7.68;1.20;;;20.90;56.50;;;;;;5237979;28;20137;-72
2021/03/18 04:38:12;;;;;;;4.07;1.10;;;20.90;56.50;;;;;;5237044;28;20073;-71
2021/03/18 04:40:42;;;;;;;6.55;1.10;;;20.90;56.00;;;;;;5238373;28;20453;-71
2021/03/18 04:43:13;;;;;;;9.65;1.40;;;20.90;56.20;;;;;;5238692;28;20039;-75
2021/03/18 04:45:44;;;;;;;9.32;1.45;;;20.90;56.60;;;;;;5243142;28;20040;-70
2021/03/18 04:48:14;;;;;;;6.40;1.33;;;20.90;56.50;;;;;;5241441;28;20038;-70
2021/03/18 04:50:45;;;;;;;6.80;1.10;;;20.90;56.50;;;;;;5240889;28;20055;-72
2021/03/18 04:53:17;;;;;;;5.38;1.08;;;20.90;56.40;;;;;;5258616;28;20128;-70
2021/03/18 04:55:48;;;;;;;7.63;0.90;;;20.80;56.20;;;;;;5241920;28;20027;-71
2021/03/18 04:58:19;;;;;;;2.55;1.42;;;20.90;56.70;;;;;;5258141;28;20387;-70
2021/03/18 05:00:50;;;;;;;4.75;1.38;;;20.90;56.20;;;;;;5256060;28;20039;-72
2021/03/18 05:03:20;;;;;;;5.28;1.00;;;20.90;56.80;;;;;;5251642;28;20473;-70
2021/03/18 05:05:51;;;;;;;7.53;1.10;;;20.90;56.20;;;;;;5266030;28;20035;-70
2021/03/18 05:08:22;;;;;;;3.33;1.15;;;20.90;56.30;;;;;;5253184;28;20031;-70
2021/03/18 05:10:52;;;;;;;3.08;0.80;;;20.90;56.30;;;;;;5288323;28;20095;-71
2021/03/18 05:13:23;;;;;;;2.75;0.90;;;20.90;56.60;;;;;;5271002;28;20058;-71
2021/03/18 05:15:54;;;;;;;5.18;0.98;;;20.80;56.70;;;;;;5247326;28;20032;-71
2021/03/18 05:18:25;;;;;;;2.35;0.80;;;20.80;55.70;;;;;;5249460;28;20032;-71
2021/03/18 05:20:55;;;;;;;6.40;1.45;;;20.80;55.70;;;;;;5226616;28;20032;-71
2021/03/18 05:23:26;;;;;;;2.67;1.00;;;20.80;56.20;;;;;;5231702;28;20109;-70
2021/03/18 05:25:57;;;;;;;5.68;1.13;;;20.80;56.30;;;;;;5246961;28;20492;-72
2021/03/18 05:28:27;;;;;;;4.15;1.10;;;20.80;56.50;;;;;;5234220;28;20030;-72
2021/03/18 05:30:58;;;;;;;4.18;1.00;;;20.80;56.50;;;;;;5223848;28;20036;-72
2021/03/18 05:33:28;;;;;;;2.90;1.13;;;20.80;56.90;;;;;;5233114;28;20020;-71
2021/03/18 05:35:59;;;;;;;4.78;1.20;;;20.80;56.70;;;;;;5250011;28;20481;-72
2021/03/18 05:38:29;;;;;;;2.70;0.75;;;20.90;57.00;;;;;;5250162;28;20039;-72
2021/03/18 05:41:00;;;;;;;3.47;1.00;;;20.90;56.70;;;;;;5245673;28;20031;-72
2021/03/18 05:43:30;;;;;;;4.25;1.02;;;20.90;56.70;;;;;;5234321;28;20119;-72
2021/03/18 05:46:01;;;;;;;11.38;1.15;;;20.90;56.70;;;;;;5255463;28;20506;-71
2021/03/18 05:48:33;;;;;;;11.43;1.60;;;20.90;57.20;;;;;;5287520;28;20043;-71
2021/03/18 05:51:04;;;;;;;13.85;1.50;;;21.00;57.10;;;;;;5237737;28;20027;-72
2021/03/18 05:53:35;;;;;;;13.18;1.55;;;21.10;57.20;;;;;;5239100;28;20028;-72
2021/03/18 05:56:06;;;;;;;9.20;1.10;;;21.10;57.00;;;;;;5235651;28;20405;-72
2021/03/18 05:58:36;;;;;;;8.82;1.25;;;21.10;57.10;;;;;;5247801;28;20032;-72
2021/03/18 06:01:08;;;;;;;20.88;1.70;;;21.10;57.30;;;;;;5221890;28;20114;-72
2021/03/18 06:03:39;;;;;;;14.35;1.50;;;21.10;57.20;;;;;;5230011;28;20034;-75
2021/03/18 06:06:09;;;;;;;8.65;1.60;;;21.00;56.20;;;;;;5239593;28;20020;-75
2021/03/18 06:08:40;;;;;;;10.10;1.50;;;21.00;55.40;;;;;;5244157;28;20023;-76
2021/03/18 06:11:11;;;;;;;11.75;1.40;;;21.00;55.00;;;;;;5233042;28;20110;-75
2021/03/18 06:13:42;;;;;;;10.68;1.25;;;21.00;54.70;;;;;;5218815;28;20610;-75
2021/03/18 06:16:12;;;;;;;9.38;1.35;;;21.00;54.80;;;;;;5231176;28;20043;-75
2021/03/18 06:18:43;;;;;;;9.98;1.27;;;21.00;54.60;;;;;;5230600;28;20067;-72
2021/03/18 06:21:14;;;;;;;8.77;1.58;;;21.00;54.20;;;;;;5230961;28;20035;-75
2021/03/18 06:23:58;;;;;;;9.23;1.10;;;20.90;54.30;;;;;;5245614;28;20400;-72
2021/03/18 06:26:33;;;;;;;15.07;1.33;;;20.90;54.20;;;;;;5214097;28;20054;-74
2021/03/18 06:29:05;;;;;;;4.20;1.13;;;20.90;53.50;;;;;;5230807;28;20540;-73
2021/03/18 06:31:36;;;;;;;7.72;1.05;;;20.90;53.10;;;;;;5243515;28;20039;-76
2021/03/18 06:34:07;;;;;;;9.82;0.90;;;20.90;52.90;;;;;;5251265;28;20017;-73
2021/03/18 06:36:37;;;;;;;7.57;1.20;;;20.90;52.80;;;;;;5240770;28;20035;-73
2021/03/18 06:39:14;;;;;;;10.10;1.15;;;21.00;53.00;;;;;;5260529;28;20438;-74
2021/03/18 06:41:56;;;;;;;6.93;1.35;;;20.90;52.80;;;;;;5265878;28;20550;-74
2021/03/18 06:44:30;;;;;;;6.53;1.73;;;20.90;52.70;;;;;;5268581;28;20130;-75
2021/03/18 06:47:08;;;;;;;4.53;1.98;;;20.80;52.50;;;;;;5278693;28;20051;-75
2021/03/18 06:49:38;;;;;;;4.80;2.10;;;20.80;52.10;;;;;;5230956;28;20062;-74
2021/03/18 06:52:11;;;;;;;6.90;2.05;;;20.70;51.70;;;;;;5233784;28;20032;-75
2021/03/18 06:54:42;;;;;;;5.00;2.30;;;20.70;51.50;;;;;;5242367;28;20385;-77
2021/03/18 06:57:18;;;;;;;4.68;2.60;;;20.60;51.20;;;;;;5242152;28;20032;-75
2021/03/18 06:59:48;;;;;;;5.75;2.60;;;20.70;50.70;;;;;;5231577;28;20055;-74
2021/03/18 07:02:19;;;;;;;5.70;2.70;;;20.60;50.20;;;;;;5253225;28;20063;-75
2021/03/18 07:04:53;;;;;;;8.23;2.47;;;20.60;50.30;;;;;;5231147;28;20051;-74
2021/03/18 07:07:25;;;;;;;5.03;2.47;;;20.50;50.50;;;;;;5247089;28;20426;-74
2021/03/18 07:09:57;;;;;;;4.53;3.00;;;20.40;50.50;;;;;;5248082;28;20044;-74
2021/03/18 07:12:29;;;;;;;5.82;3.05;;;20.40;50.20;;;;;;5236431;28;20028;-73
2021/03/18 07:15:01;;;;;;;3.67;3.03;;;20.40;50.30;;;;;;5257109;28;20396;-76
2021/03/18 07:17:32;;;;;;;5.43;3.22;;;20.30;49.80;;;;;;5246739;28;20039;-75
2021/03/18 07:20:10;;;;;;;6.90;3.35;;;20.30;49.80;;;;;;5229316;28;20020;-72
2021/03/18 07:22:46;;;;;;;5.88;3.30;;;20.30;49.40;;;;;;5269189;28;20388;-69
2021/03/18 07:25:18;;;;;;;6.28;3.72;;;20.20;49.30;;;;;;5266745;28;20384;-72
2021/03/18 07:27:50;;;;;;;6.03;3.65;;;20.30;49.10;;;;;;5250063;28;20688;-69
2021/03/18 07:30:26;;;;;;;5.25;3.80;;;20.20;49.10;;;;;;5250268;28;20388;-71
2021/03/18 07:32:59;;;;;;;;;;;20.20;48.90;;;;;;5263587;28;20028;-69
2021/03/18 07:35:31;;;;;;;4.32;3.47;;;20.20;48.90;;;;;;5277621;28;19904;-71
2021/03/18 07:38:01;;;;;;;7.00;3.47;;;20.20;48.60;;;;;;5277280;28;20039;-69
2021/03/18 07:40:32;;;;;;;5.10;3.22;;;20.20;48.60;;;;;;5251168;28;20015;-72
2021/03/18 07:43:02;;;;;;;5.50;3.20;;;20.20;48.50;;;;;;5243304;28;20124;-70
2021/03/18 07:45:33;;;;;;;6.70;3.08;;;20.10;48.40;;;;;;5233007;28;20058;-72
2021/03/18 07:48:04;;;;;;;4.78;3.13;;;20.10;48.40;;;;;;5252426;28;20031;-71
2021/03/18 07:50:35;;;;;;;4.32;2.88;;;20.10;48.40;;;;;;5268667;28;20020;-70
2021/03/18 07:53:09;;;;;;;4.15;3.03;;;20.10;48.40;;;;;;5252422;28;20736;-70
2021/03/18 07:55:40;;;;;;;6.68;2.90;;;20.10;48.40;;;;;;5237946;23;20537;-75
2021/03/18 07:58:10;;;;;;;4.70;2.95;;;20.10;48.30;;;;;;5188142;28;20466;-75
2021/03/18 08:00:43;;;;;;;5.13;3.25;;;20.00;48.50;;;;;;5174952;28;20028;-75
2021/03/18 08:03:20;;;;;;;3.97;3.00;;;19.90;48.50;;;;;;5170416;28;20026;-75
2021/03/18 08:05:50;;;;;;;7.63;3.90;;;19.20;48.70;;;;;;5212879;28;20599;-76
2021/03/18 08:08:33;;;;;;;7.20;3.97;;;19.10;49.60;;;;;;5186888;28;20120;-75
2021/03/18 08:11:17;;;;;;;8.23;4.43;;;19.20;49.10;;;;;;5209163;28;20082;-73
2021/03/18 08:13:47;;;;;;;9.18;5.03;;;19.20;49.20;;;;;;5193505;28;20052;-74
2021/03/18 08:16:28;;;;;;;8.75;5.43;;;19.20;49.80;;;;;;5191187;28;20037;-74
2021/03/18 08:18:59;;;;;;;10.27;5.68;;;19.30;49.30;;;;;;5188990;28;20068;-75
2021/03/18 08:21:42;;;;;;;5.82;4.95;;;19.20;47.90;;;;;;5189151;28;20028;-75
2021/03/18 08:24:14;;;;;;;7.53;4.60;;;19.20;48.20;;;;;;5201403;28;20066;-75
2021/03/18 08:26:52;;;;;;;7.93;5.32;;;19.00;47.80;;;;;;5210833;28;20028;-75
2021/03/18 08:29:47;;;;;;;9.85;6.10;;;19.00;48.60;;;;;;5196934;28;20082;-76
2021/03/18 08:32:23;;;;;;;6.75;5.20;;;19.00;48.30;;;;;;5181814;28;20060;-76
2021/03/18 08:34:58;;;;;;;7.72;5.90;;;19.10;47.80;;;;;;5206778;28;20032;-75
2021/03/18 08:37:44;;;;;;;9.90;6.22;;;19.10;47.20;;;;;;5189486;28;20025;-76
2021/03/18 08:40:21;;;;;;;;;;;19.00;46.30;;;;;;5192873;28;20438;-75
2021/03/18 08:42:53;;;;;;;8.32;5.60;;;19.00;45.70;;;;;;5229577;28;20041;-76
2021/03/18 08:45:23;;;;;;;8.68;5.20;;;19.00;46.50;;;;;;5210958;28;20040;-75
2021/03/18 08:47:56;;;;;;;6.38;4.88;;;19.00;46.00;;;;;;5209970;28;20037;-76
2021/03/18 08:50:27;;;;;;;6.97;4.55;;;19.00;46.20;;;;;;5213966;28;20025;-76
2021/03/18 08:52:58;;;;;;;8.15;4.40;;;18.80;44.70;;;;;;5229756;28;20025;-76
2021/03/18 08:55:49;;;;;;;5.70;4.10;;;18.70;43.50;;;;;;5213732;28;20502;-76
2021/03/18 08:58:20;;;;;;;8.63;4.38;;;18.60;42.40;;;;;;5213245;28;20470;-76
2021/03/18 09:00:51;;;;;;;4.82;3.75;;;18.50;42.80;;;;;;5205209;28;20048;-76
2021/03/18 09:03:22;;;;;;;6.43;4.38;;;18.40;42.50;;;;;;5197140;28;20028;-76
2021/03/18 09:05:54;;;;;;;7.50;4.50;;;18.40;42.20;;;;;;5195481;28;20087;-76
2021/03/18 09:08:31;;;;;;;6.63;4.43;;;18.40;41.80;;;;;;5216098;28;20044;-76
2021/03/18 09:11:01;;;;;;;8.07;4.70;;;18.30;41.80;;;;;;5183321;28;20025;-76
2021/03/18 09:13:35;;;;;;;9.45;4.88;;;18.30;42.00;;;;;;5178017;28;20044;-76
2021/03/18 09:16:05;;;;;;;5.90;4.50;;;18.30;41.80;;;;;;5180927;28;20099;-76
2021/03/18 09:18:36;;;;;;;6.38;4.72;;;18.20;41.90;;;;;;5208246;28;20029;-76
2021/03/18 09:21:10;;;;;;;8.27;4.43;;;18.20;41.70;;;;;;5209095;28;20052;-76
2021/03/18 09:23:42;;;;;;;6.35;4.40;;;18.20;41.50;;;;;;5191483;28;20034;-76
2021/03/18 09:26:14;;;;;;;7.57;4.85;;;18.20;41.80;;;;;;5172382;28;20056;-76
2021/03/18 09:28:47;;;;;;;6.70;4.10;;;18.10;41.80;;;;;;5203232;28;20398;-77
2021/03/18 09:31:21;;;;;;;6.25;3.55;;;18.20;42.70;;;;;;5194030;28;20116;-76
2021/03/18 09:33:54;;;;;;;6.85;3.20;;;18.70;49.20;;;;;;5192464;28;20056;-76
2021/03/18 09:36:29;;;;;;;4.95;3.17;;;19.00;47.30;;;;;;5224697;28;20063;-76
2021/03/18 09:39:09;;;;;;;7.47;3.40;;;19.30;45.60;;;;;;5215254;28;20120;-76
2021/03/18 09:41:48;;;;;;;7.88;3.30;;;19.40;44.70;;;;;;5193651;28;20396;-76
2021/03/18 09:44:20;;;;;;;5.95;2.78;;;19.50;44.90;;;;;;5186632;28;20043;-76
2021/03/18 09:46:53;;;;;;;11.60;3.22;;;19.60;45.30;;;;;;5207336;28;20112;-76
2021/03/18 09:49:27;;;;;;;7.43;2.45;;;19.70;45.60;;;;;;5221799;28;20044;-76
2021/03/18 09:51:58;;;;;;;4.85;2.80;;;19.70;45.80;;;;;;5239718;28;20422;-75
2021/03/18 09:54:29;;;;;;;5.13;2.53;;;19.80;46.00;;;;;;5192047;28;20092;-76
2021/03/18 09:57:01;;;;;;;5.60;2.53;;;19.80;46.40;;;;;;5196192;28;20028;-76
2021/03/18 09:59:31;;;;;;;8.13;2.65;;;19.80;46.40;;;;;;5206406;28;20403;-76
2021/03/18 10:02:02;;;;;;;7.28;2.60;;;19.90;46.20;;;;;;5196330;28;20033;-76
2021/03/18 10:04:39;;;;;;;5.93;3.00;;;19.90;46.40;;;;;;5184958;28;20032;-76
2021/03/18 10:07:10;;;;;;;9.70;2.83;;;20.00;46.80;;;;;;5238495;28;20036;-76
2021/03/18 10:09:42;;;;;;;5.13;2.58;;;20.00;47.30;;;;;;5234165;28;20410;-76
2021/03/18 10:12:20;;;;;;;7.80;2.33;;;20.00;47.70;;;;;;5219848;28;20052;-76
2021/03/18 10:15:06;;;;;;;9.95;2.63;;;20.00;47.90;;;;;;5225259;28;20044;-76
2021/03/18 10:17:41;;;;;;;6.50;2.40;;;20.00;47.90;;;;;;5201925;28;20037;-76
2021/03/18 10:20:26;;;;;;;5.75;2.33;;;20.10;47.90;;;;;;5205653;28;20488;-76
2021/03/18 10:23:10;;;;;;;6.15;2.50;;;20.00;48.20;;;;;;5206726;28;20036;-76
2021/03/18 10:25:40;;;;;;;7.80;2.20;;;20.00;48.60;;;;;;5213508;28;20077;-76
2021/03/18 10:28:12;;;;;;;7.07;2.58;;;20.10;48.60;;;;;;5222563;28;20048;-76
2021/03/18 10:30:44;;;;;;;5.95;1.98;;;20.10;48.90;;;;;;5188990;28;20041;-76
2021/03/18 10:33:16;;;;;;;3.47;2.20;;;20.10;49.20;;;;;;5216653;28;20045;-76
2021/03/18 10:35:53;;;;;;;5.43;2.90;;;20.10;48.90;;;;;;5190705;28;20395;-76
2021/03/18 10:38:30;;;;;;;4.47;2.30;;;20.20;49.20;;;;;;5215056;28;20035;-75
2021/03/18 10:41:19;;;;;;;5.72;2.03;;;20.20;49.40;;;;;;5222278;28;20063;-76
2021/03/18 10:43:49;;;;;;;6.60;2.08;;;20.10;49.60;;;;;;5223173;28;20067;-76
2021/03/18 10:46:28;;;;;;;4.07;2.08;;;20.10;50.20;;;;;;5171830;28;20060;-76
2021/03/18 10:48:58;;;;;;;6.40;2.30;;;20.10;50.20;;;;;;5221200;28;20423;-76
2021/03/18 10:51:29;;;;;;;3.83;2.33;;;20.10;50.30;;;;;;5210679;28;20031;-76
2021/03/18 10:53:59;;;;;;;4.50;2.30;;;20.10;49.90;;;;;;5183620;28;20034;-76
2021/03/18 10:56:30;;;;;;;3.05;2.00;;;20.10;49.70;;;;;;5190453;28;20411;-76
2021/03/18 10:59:14;;;;;;;2.33;1.90;;;20.10;49.70;;;;;;5189616;28;20563;-76
2021/03/18 11:01:45;;;;;;;5.32;2.08;;;20.00;49.70;;;;;;5206086;28;20041;-76
2021/03/18 11:04:15;;;;;;;2.50;1.80;;;20.00;50.00;;;;;;5209593;28;20041;-76
2021/03/18 11:06:47;;;;;;;3.35;2.03;;;20.00;50.10;;;;;;5223532;28;20037;-77
2021/03/18 11:09:18;;;;;;;2.92;2.13;;;20.00;50.50;;;;;;5206032;28;20047;-76
2021/03/18 11:11:58;;;;;;;3.20;1.98;;;20.00;50.80;;;;;;5206833;28;20025;-76
2021/03/18 11:14:30;;;;;;;3.45;2.00;;;20.00;50.90;;;;;;5208770;28;20453;-75
2021/03/18 11:17:08;;;;;;;7.03;2.60;;;20.10;51.50;;;;;;5214370;28;20041;-76
2021/03/18 11:19:38;;;;;;;5.93;2.38;;;20.20;52.20;;;;;;5206191;28;20479;-76
2021/03/18 11:22:09;;;;;;;6.55;2.55;;;20.20;52.10;;;;;;5191253;28;20112;-75
2021/03/18 11:24:39;;;;;;;8.68;3.22;;;20.20;51.20;;;;;;5199892;28;20101;-77
2021/03/18 11:27:10;;;;;;;6.30;3.38;;;20.20;50.40;;;;;;5190565;28;20459;-75
2021/03/18 11:29:40;;;;;;;8.50;3.67;;;20.20;50.10;;;;;;5191310;28;20036;-74
2021/03/18 11:32:11;;;;;;;6.32;3.60;;;20.20;50.20;;;;;;5186203;28;20510;-74
2021/03/18 11:34:42;;;;;;;6.63;3.90;;;20.20;50.30;;;;;;5212852;28;20769;-76
2021/03/18 11:37:12;;;;;;;7.90;4.00;;;20.30;50.00;;;;;;5210405;28;20031;-76
2021/03/18 11:39:43;;;;;;;10.50;4.28;;;20.30;49.90;;;;;;5207702;28;20037;-76
2021/03/18 11:42:13;;;;;;;7.63;4.20;;;20.30;50.10;;;;;;5203208;28;20510;-76
2021/03/18 11:44:44;;;;;;;6.65;4.00;;;20.20;50.30;;;;;;5222611;28;20048;-76
2021/03/18 11:47:15;;;;;;;6.97;4.30;;;20.20;50.50;;;;;;5172465;28;20431;-75
2021/03/18 11:49:45;;;;;;;6.82;4.00;;;20.20;50.60;;;;;;5201840;28;20511;-76
2021/03/18 11:52:16;;;;;;;4.80;3.55;;;20.20;50.70;;;;;;5197543;28;20575;-76
2021/03/18 11:54:47;;;;;;;6.53;3.35;;;20.10;50.90;;;;;;5180829;28;20495;-76
2021/03/18 11:57:19;;;;;;;6.57;3.10;;;20.30;51.00;;;;;;5162930;28;20079;-76
2021/03/18 11:59:49;;;;;;;9.30;3.03;;;20.20;51.40;;;;;;5187116;28;20038;-76
2021/03/18 12:02:20;;;;;;;4.90;2.78;;;20.20;52.00;;;;;;5199820;28;20037;-76
2021/03/18 12:04:50;;;;;;;5.00;2.75;;;20.20;52.20;;;;;;5225522;28;20463;-76
2021/03/18 12:07:21;;;;;;;6.10;2.88;;;20.20;52.40;;;;;;5222166;28;20055;-76
2021/03/18 12:09:51;;;;;;;5.68;2.55;;;20.30;52.30;;;;;;5207137;28;20093;-76
2021/03/18 12:12:22;;;;;;;4.18;2.45;;;20.30;52.50;;;;;;5211806;28;20107;-76
2021/03/18 12:14:52;;;;;;;5.97;2.50;;;20.30;52.60;;;;;;5209602;28;20052;-76
2021/03/18 12:17:23;;;;;;;2.83;2.22;;;20.30;52.70;;;;;;5212476;28;20036;-76
2021/03/18 12:19:53;;;;;;;4.22;2.13;;;20.30;52.70;;;;;;5230667;28;20037;-76
2021/03/18 12:22:24;;;;;;;4.25;2.30;;;20.40;53.00;;;;;;5210528;28;20401;-76
2021/03/18 12:24:54;;;;;;;4.20;2.10;;;20.40;53.00;;;;;;5185905;28;20614;-75
2021/03/18 12:27:25;;;;;;;3.67;2.20;;;20.40;53.00;;;;;;5208083;28;20139;-76
2021/03/18 12:29:56;;;;;;;6.05;2.42;;;20.40;53.10;;;;;;5174065;28;20056;-76
2021/03/18 12:32:26;;;;;;;3.80;2.25;;;20.40;53.00;;;;;;5222426;28;20042;-76
2021/03/18 12:34:57;;;;;;;6.82;2.20;;;20.40;53.10;;;;;;5209501;28;20037;-76
2021/03/18 12:37:27;;;;;;;2.63;2.00;;;20.40;53.00;;;;;;5212669;28;20386;-76
2021/03/18 12:39:58;;;;;;;3.90;2.08;;;20.40;52.90;;;;;;5225160;28;20052;-76
2021/03/18 12:42:28;;;;;;;4.32;2.30;;;20.40;52.90;;;;;;5230802;28;20032;-76
2021/03/18 12:44:59;;;;;;;6.97;2.40;;;20.40;53.10;;;;;;5207777;28;20513;-76
2021/03/18 12:47:30;;;;;;;5.18;1.85;;;20.40;53.00;;;;;;5224420;28;20060;-76
2021/03/18 12:50:01;;;;;;;3.28;2.15;;;20.40;53.10;;;;;;5224624;28;20040;-76
2021/03/18 12:52:31;;;;;;;3.22;2.00;;;20.40;53.20;;;;;;5237305;28;20028;-76
2021/03/18 12:55:06;;;;;;;4.35;2.15;;;20.40;53.30;;;;;;5220110;28;20037;-77
2021/03/18 12:57:39;;;;;;;6.25;2.20;;;20.40;53.40;;;;;;5214542;28;20025;-76
2021/03/18 13:00:11;;;;;;;4.18;2.10;;;20.40;53.20;;;;;;5217286;28;20036;-76
2021/03/18 13:02:42;;;;;;;4.20;1.90;;;20.50;53.10;;;;;;5184573;28;20369;-76
2021/03/18 13:05:12;;;;;;;3.65;1.88;;;20.40;53.20;;;;;;5203908;28;20037;-76
2021/03/18 13:07:43;;;;;;;5.03;1.92;;;20.50;53.10;;;;;;5214198;28;20060;-76
2021/03/18 13:10:14;;;;;;;4.82;2.13;;;20.40;53.90;;;;;;5183348;28;20041;-76
2021/03/18 13:12:45;;;;;;;3.17;2.10;;;20.40;53.60;;;;;;5212042;28;20037;-76